createdAt,value
2018-04-08T00:00:37.493Z,13.20
2018-04-08T00:03:05.064Z,13.20
2018-04-08T00:05:32.628Z,13.20
2018-04-08T00:08:00.179Z,13.10
2018-04-08T00:10:28.569Z,13.10
2018-04-08T00:12:56.987Z,13.10
2018-04-08T00:15:24.524Z,13.10
2018-04-08T00:17:52.865Z,13.10
2018-04-08T00:20:20.411Z,13.00
2018-04-08T00:22:47.969Z,13.00
2018-04-08T00:25:15.531Z,13.00
2018-04-08T00:27:43.108Z,13.00
2018-04-08T00:30:11.440Z,12.90
2018-04-08T00:32:39.001Z,12.90
2018-04-08T00:35:06.575Z,12.80
2018-04-08T00:37:34.150Z,12.80
2018-04-08T00:40:02.466Z,12.80
2018-04-08T00:42:30.041Z,12.70
2018-04-08T00:44:57.562Z,12.80
2018-04-08T00:47:25.146Z,12.80
2018-04-08T00:49:52.732Z,12.70
2018-04-08T00:52:20.274Z,12.70
2018-04-08T00:54:47.860Z,12.70
2018-04-08T00:57:15.413Z,12.70
2018-04-08T00:59:43.742Z,12.60
2018-04-08T01:02:11.282Z,12.60
2018-04-08T01:04:38.826Z,12.60
2018-04-08T01:07:06.404Z,12.50
2018-04-08T01:09:33.959Z,12.50
2018-04-08T01:12:01.533Z,12.40
2018-04-08T01:14:29.107Z,12.40
2018-04-08T01:16:56.634Z,12.30
2018-04-08T01:19:24.179Z,12.30
2018-04-08T01:21:51.739Z,12.30
2018-04-08T01:24:19.335Z,12.30
2018-04-08T01:26:46.923Z,12.30
2018-04-08T01:29:14.459Z,12.20
2018-04-08T01:31:42.169Z,12.20
2018-04-08T01:34:10.506Z,12.10
2018-04-08T01:36:38.062Z,12.10
2018-04-08T01:39:06.293Z,12.00
2018-04-08T01:41:33.916Z,12.00
2018-04-08T01:44:01.498Z,11.90
2018-04-08T01:46:29.824Z,11.90
2018-04-08T01:48:57.346Z,11.80
2018-04-08T01:51:25.650Z,11.80
2018-04-08T01:53:53.209Z,11.80
2018-04-08T01:56:20.783Z,11.80
2018-04-08T01:58:48.332Z,11.70
2018-04-08T02:01:15.950Z,11.70
2018-04-08T02:03:43.492Z,11.70
2018-04-08T02:06:11.063Z,11.70
2018-04-08T02:08:38.611Z,11.70
2018-04-08T02:11:06.186Z,11.60
2018-04-08T02:13:33.760Z,11.50
2018-04-08T02:16:02.088Z,11.40
2018-04-08T02:18:30.418Z,11.40
2018-04-08T02:20:58.758Z,11.40
2018-04-08T02:23:26.339Z,11.40
2018-04-08T02:25:54.672Z,11.30
2018-04-08T02:28:22.332Z,11.30
2018-04-08T02:30:49.872Z,11.30
2018-04-08T02:33:17.431Z,11.20
2018-04-08T02:35:45.569Z,11.20
2018-04-08T02:38:13.911Z,11.10
2018-04-08T02:40:41.460Z,11.10
2018-04-08T02:43:09.041Z,11.00
2018-04-08T02:45:36.601Z,11.00
2018-04-08T02:48:04.154Z,10.90
2018-04-08T02:50:31.711Z,10.90
2018-04-08T02:52:59.270Z,10.90
2018-04-08T02:55:26.851Z,10.80
2018-04-08T02:57:54.365Z,10.80
2018-04-08T03:00:21.931Z,10.80
2018-04-08T03:02:49.463Z,10.70
2018-04-08T03:05:17.046Z,10.80
2018-04-08T03:07:44.614Z,10.70
2018-04-08T03:10:12.175Z,10.70
2018-04-08T03:12:39.757Z,10.70
2018-04-08T03:15:07.335Z,10.60
2018-04-08T03:17:34.910Z,10.60
2018-04-08T03:20:03.257Z,10.50
2018-04-08T03:22:31.602Z,10.50
2018-04-08T03:24:59.148Z,10.40
2018-04-08T03:27:26.750Z,10.50
2018-04-08T03:29:54.308Z,10.50
2018-04-08T03:32:21.844Z,10.50
2018-04-08T03:34:49.418Z,10.40
2018-04-08T03:37:16.995Z,10.40
2018-04-08T03:39:44.592Z,10.40
2018-04-08T03:42:12.179Z,10.40
2018-04-08T03:44:39.727Z,10.40
2018-04-08T03:47:07.286Z,10.40
2018-04-08T03:49:34.812Z,10.40
2018-04-08T03:52:02.382Z,10.40
2018-04-08T03:54:30.735Z,10.30
2018-04-08T03:56:58.295Z,10.30
2018-04-08T03:59:25.852Z,10.20
2018-04-08T04:01:53.410Z,10.20
2018-04-08T04:04:20.984Z,10.20
2018-04-08T04:06:48.544Z,10.20
2018-04-08T04:09:16.111Z,10.20
2018-04-08T04:11:44.463Z,10.10
2018-04-08T04:14:12.043Z,10.10
2018-04-08T04:16:39.602Z,10.10
2018-04-08T04:19:19.154Z,10.10
2018-04-08T04:21:58.527Z,10.10
2018-04-08T04:24:37.918Z,10.10
2018-04-08T04:27:05.448Z,10.10
2018-04-08T04:29:33.011Z,10.10
2018-04-08T04:32:00.581Z,10.00
2018-04-08T04:34:28.130Z,10.10
2018-04-08T04:36:55.693Z,10.10
2018-04-08T04:39:23.288Z,10.10
2018-04-08T04:41:50.869Z,10.10
2018-04-08T04:44:19.252Z,10.10
2018-04-08T04:46:46.827Z,10.10
2018-04-08T04:49:14.386Z,10.10
2018-04-08T04:51:41.952Z,10.10
2018-04-08T04:54:09.632Z,10.20
2018-04-08T04:56:37.207Z,10.10
2018-04-08T04:59:04.783Z,10.10
2018-04-08T05:01:32.375Z,10.20
2018-04-08T05:03:59.938Z,10.20
2018-04-08T05:06:27.635Z,10.20
2018-04-08T05:08:55.218Z,10.20
2018-04-08T05:11:22.771Z,10.30
2018-04-08T05:13:50.605Z,10.30
2018-04-08T05:16:18.155Z,10.30
2018-04-08T05:18:50.422Z,10.40
2018-04-08T05:21:18.001Z,10.40
2018-04-08T05:23:45.596Z,10.40
2018-04-08T05:26:14.736Z,10.40
2018-04-08T05:28:43.074Z,10.50
2018-04-08T05:31:14.839Z,10.50
2018-04-08T05:33:43.865Z,10.50
2018-04-08T05:36:15.386Z,10.60
2018-04-08T05:38:43.749Z,10.70
2018-04-08T05:41:11.289Z,10.70
2018-04-08T05:43:38.830Z,10.70
2018-04-08T05:46:06.390Z,10.80
2018-04-08T05:48:33.934Z,10.80
2018-04-08T05:51:02.274Z,10.90
2018-04-08T05:53:30.024Z,10.90
2018-04-08T05:55:59.253Z,11.00
2018-04-08T05:58:27.819Z,11.00
2018-04-08T06:00:55.380Z,11.00
2018-04-08T06:03:22.935Z,11.10
2018-04-08T06:05:50.498Z,11.10
2018-04-08T06:08:18.237Z,11.20
2018-04-08T06:10:45.784Z,11.30
2018-04-08T06:13:13.337Z,11.40
2018-04-08T06:15:40.910Z,11.40
2018-04-08T06:18:08.460Z,11.50
2018-04-08T06:20:36.216Z,11.60
2018-04-08T06:23:03.808Z,11.60
2018-04-08T06:25:31.397Z,11.70
2018-04-08T06:27:58.944Z,11.70
2018-04-08T06:30:26.576Z,11.80
2018-04-08T06:32:54.145Z,11.90
2018-04-08T06:35:21.711Z,12.00
2018-04-08T06:37:49.268Z,12.00
2018-04-08T06:40:17.075Z,12.10
2018-04-08T06:42:44.715Z,12.20
2018-04-08T06:45:12.255Z,12.30
2018-04-08T06:47:39.829Z,12.40
2018-04-08T06:50:07.394Z,12.50
2018-04-08T06:52:39.428Z,12.60
2018-04-08T06:55:06.995Z,12.70
2018-04-08T06:57:34.550Z,12.80
2018-04-08T07:00:02.092Z,12.90
2018-04-08T07:02:29.660Z,13.00
2018-04-08T07:04:57.270Z,13.10
2018-04-08T07:07:24.827Z,13.30
2018-04-08T07:09:52.407Z,13.40
2018-04-08T07:12:20.766Z,13.60
2018-04-08T07:14:48.326Z,13.60
2018-04-08T07:17:15.881Z,13.70
2018-04-08T07:19:43.485Z,13.90
2018-04-08T07:22:11.052Z,14.00
2018-04-08T07:24:38.639Z,14.00
2018-04-08T07:27:06.170Z,14.20
2018-04-08T07:29:33.705Z,14.30
2018-04-08T07:32:02.056Z,14.50
2018-04-08T07:34:29.642Z,14.50
2018-04-08T07:36:57.188Z,14.60
2018-04-08T07:39:24.816Z,14.70
2018-04-08T07:41:52.418Z,14.80
2018-04-08T07:44:19.986Z,15.00
2018-04-08T07:46:48.281Z,15.20
2018-04-08T07:49:15.853Z,15.20
2018-04-08T07:51:43.433Z,15.30
2018-04-08T07:54:10.992Z,15.40
2018-04-08T07:56:38.547Z,15.50
2018-04-08T07:59:06.126Z,15.70
2018-04-08T08:01:33.699Z,15.80
2018-04-08T08:04:01.281Z,15.80
2018-04-08T08:06:29.786Z,16.10
2018-04-08T08:08:57.393Z,16.10
2018-04-08T08:11:24.964Z,16.30
2018-04-08T08:13:52.508Z,16.50
2018-04-08T08:16:21.543Z,16.70
2018-04-08T08:18:49.090Z,16.90
2018-04-08T08:21:16.727Z,16.80
2018-04-08T08:23:44.419Z,17.10
2018-04-08T08:26:12.057Z,17.30
2018-04-08T08:28:39.591Z,17.40
2018-04-08T08:31:07.971Z,17.40
2018-04-08T08:33:35.615Z,17.50
2018-04-08T08:36:03.185Z,17.70
2018-04-08T08:38:30.730Z,17.80
2018-04-08T08:40:58.507Z,17.90
2018-04-08T08:43:27.008Z,18.30
2018-04-08T08:45:54.590Z,18.30
2018-04-08T08:48:22.142Z,18.50
2018-04-08T08:50:50.216Z,18.60
2018-04-08T08:53:18.777Z,18.90
2018-04-08T08:55:46.339Z,18.90
2018-04-08T08:58:13.878Z,19.10
2018-04-08T09:00:41.493Z,19.40
2018-04-08T09:03:09.093Z,19.60
2018-04-08T09:05:37.407Z,19.80
2018-04-08T09:08:04.974Z,19.80
2018-04-08T09:10:32.543Z,19.90
2018-04-08T09:13:00.076Z,20.10
2018-04-08T09:15:27.648Z,20.40
2018-04-08T09:17:55.397Z,20.60
2018-04-08T09:20:23.012Z,20.50
2018-04-08T09:26:05.195Z,20.70
2018-04-08T09:28:32.703Z,21.10
2018-04-08T09:31:01.125Z,21.30
2018-04-08T09:33:28.617Z,21.30
2018-04-08T09:35:56.138Z,21.40
2018-04-08T09:38:23.666Z,21.40
2018-04-08T09:40:51.933Z,21.70
2018-04-08T09:43:20.181Z,21.70
2018-04-08T09:45:47.801Z,21.70
2018-04-08T09:48:15.465Z,21.80
2018-04-08T09:50:42.952Z,22.30
2018-04-08T09:53:10.452Z,22.50
2018-04-08T09:55:38.704Z,22.60
2018-04-08T09:58:25.000Z,22.50
2018-04-08T10:03:54.359Z,22.50
2018-04-08T10:06:22.654Z,23.20
2018-04-08T10:08:50.234Z,23.10
2018-04-08T10:11:17.791Z,23.10
2018-04-08T10:13:45.298Z,22.80
2018-04-08T10:16:13.587Z,22.50
2018-04-08T10:18:41.852Z,22.90
2018-04-08T10:21:10.118Z,23.20
2018-04-08T10:23:38.412Z,23.20
2018-04-08T10:26:06.852Z,23.30
2018-04-08T10:28:34.331Z,23.30
2018-04-08T10:31:03.374Z,23.50
2018-04-08T10:33:30.865Z,23.50
2018-04-08T10:35:58.370Z,23.40
2018-04-08T10:38:26.628Z,23.20
2018-04-08T10:40:54.120Z,23.20
2018-04-08T10:43:21.607Z,23.40
2018-04-08T10:45:49.983Z,23.90
2018-04-08T10:48:17.484Z,24.30
2018-04-08T10:50:44.973Z,24.40
2018-04-08T10:53:12.458Z,24.40
2018-04-08T10:55:39.998Z,24.60
2018-04-08T10:58:07.510Z,24.70
2018-04-08T11:00:34.983Z,24.20
2018-04-08T11:03:03.270Z,23.80
2018-04-08T11:05:31.543Z,23.60
2018-04-08T11:07:59.827Z,23.70
2018-04-08T11:10:27.382Z,23.70
2018-04-08T11:12:54.908Z,24.10
2018-04-08T11:15:22.408Z,23.90
2018-04-08T11:17:49.923Z,24.00
2018-04-08T11:20:17.550Z,23.80
2018-04-08T11:22:45.089Z,23.80
2018-04-08T11:25:16.214Z,24.20
2018-04-08T11:27:44.501Z,24.30
2018-04-08T11:30:12.816Z,24.60
2018-04-08T11:32:40.311Z,24.60
2018-04-08T11:35:08.515Z,24.90
2018-04-08T11:37:36.782Z,24.80
2018-04-08T11:40:05.034Z,25.00
2018-04-08T11:42:32.533Z,25.00
2018-04-08T11:45:00.059Z,25.40
2018-04-08T11:47:27.704Z,25.10
2018-04-08T11:49:55.219Z,24.30
2018-04-08T11:52:23.737Z,23.70
2018-04-08T11:54:51.186Z,23.60
2018-04-08T11:57:18.693Z,24.10
2018-04-08T11:59:46.332Z,24.80
2018-04-08T12:02:13.865Z,25.10
2018-04-08T12:04:41.404Z,25.00
2018-04-08T12:07:08.958Z,25.00
2018-04-08T12:09:36.442Z,25.20
2018-04-08T12:12:04.014Z,25.40
2018-04-08T12:14:31.508Z,25.90
2018-04-08T12:16:59.791Z,26.10
2018-04-08T12:19:28.055Z,26.30
2018-04-08T12:21:55.552Z,26.20
2018-04-08T12:24:23.039Z,26.40
2018-04-08T12:26:51.337Z,26.90
2018-04-08T12:29:19.616Z,27.20
2018-04-08T12:31:47.122Z,27.20
2018-04-08T12:34:14.616Z,27.70
2018-04-08T12:36:42.262Z,27.80
2018-04-08T12:39:09.718Z,27.60
2018-04-08T12:41:37.233Z,28.00
2018-04-08T12:44:05.506Z,28.60
2018-04-08T12:46:33.771Z,28.60
2018-04-08T12:49:01.284Z,28.60
2018-04-08T12:51:28.781Z,28.10
2018-04-08T12:53:56.277Z,27.80
2018-04-08T12:56:23.798Z,27.50
2018-04-08T12:58:51.292Z,27.50
2018-04-08T13:01:18.827Z,27.60
2018-04-08T13:03:46.310Z,27.60
2018-04-08T13:06:13.827Z,27.30
2018-04-08T13:08:41.319Z,27.30
2018-04-08T13:11:08.832Z,27.30
2018-04-08T13:13:36.356Z,27.40
2018-04-08T13:16:03.874Z,27.50
2018-04-08T13:18:31.393Z,27.30
2018-04-08T13:20:58.892Z,27.10
2018-04-08T13:23:26.380Z,27.10
2018-04-08T13:25:53.913Z,27.00
2018-04-08T13:28:22.498Z,27.20
2018-04-08T13:30:50.770Z,27.10
2018-04-08T13:33:18.291Z,27.10
2018-04-08T13:35:45.921Z,26.90
2018-04-08T13:38:13.472Z,26.70
2018-04-08T13:40:41.019Z,26.30
2018-04-08T13:43:09.315Z,25.30
2018-04-08T13:45:36.908Z,25.30
2018-04-08T13:48:04.408Z,24.90
2018-04-08T13:50:32.688Z,23.90
2018-04-08T13:53:01.003Z,23.40
2018-04-08T13:55:28.528Z,23.40
2018-04-08T13:57:56.836Z,23.00
2018-04-08T14:00:24.635Z,22.90
2018-04-08T14:02:52.125Z,22.80
2018-04-08T14:05:20.378Z,22.50
2018-04-08T14:07:47.875Z,22.50
2018-04-08T14:10:16.209Z,22.10
2018-04-08T14:12:43.689Z,22.00
2018-04-08T14:15:11.210Z,22.00
2018-04-08T14:17:38.697Z,22.00
2018-04-08T14:20:06.190Z,21.90
2018-04-08T14:22:34.488Z,21.90
2018-04-08T14:25:01.966Z,21.90
2018-04-08T14:27:29.575Z,22.30
2018-04-08T14:29:57.850Z,22.80
2018-04-08T14:32:26.128Z,22.80
2018-04-08T14:34:54.520Z,23.00
2018-04-08T14:37:22.113Z,23.00
2018-04-08T14:39:49.638Z,23.10
2018-04-08T14:42:17.647Z,23.10
2018-04-08T14:44:45.169Z,22.60
2018-04-08T14:47:12.658Z,22.70
2018-04-08T14:49:40.156Z,22.70
2018-04-08T14:52:07.720Z,22.60
2018-04-08T14:54:35.202Z,22.40
2018-04-08T14:57:03.465Z,22.40
2018-04-08T14:59:31.018Z,22.40
2018-04-08T15:01:58.518Z,22.40
2018-04-08T15:04:26.003Z,22.40
2018-04-08T15:06:53.530Z,22.20
2018-04-08T15:09:21.039Z,22.20
2018-04-08T15:11:48.539Z,22.30
2018-04-08T15:14:16.079Z,22.20
2018-04-08T15:16:45.210Z,21.90
2018-04-08T15:19:12.714Z,21.90
2018-04-08T15:21:40.221Z,21.70
2018-04-08T15:24:07.692Z,21.70
2018-04-08T15:26:35.197Z,21.50
2018-04-08T15:29:02.692Z,21.20
2018-04-08T15:31:30.187Z,20.90
2018-04-08T15:33:57.671Z,20.70
2018-04-08T15:36:25.202Z,20.50
2018-04-08T15:38:52.700Z,20.30
2018-04-08T15:41:20.966Z,20.10
2018-04-08T15:43:48.474Z,20.10
2018-04-08T15:46:15.953Z,20.00
2018-04-08T15:48:43.437Z,19.90
2018-04-08T15:51:10.929Z,19.80
2018-04-08T15:53:38.416Z,19.70
2018-04-08T15:56:05.914Z,19.50
2018-04-08T15:58:33.419Z,19.30
2018-04-08T16:01:00.910Z,19.20
2018-04-08T16:03:28.420Z,19.10
2018-04-08T16:05:55.954Z,19.10
2018-04-08T16:08:24.215Z,18.90
2018-04-08T16:10:51.698Z,18.90
2018-04-08T16:13:19.996Z,18.70
2018-04-08T16:15:47.479Z,18.70
2018-04-08T16:18:14.964Z,18.70
2018-04-08T16:20:42.478Z,18.70
2018-04-08T16:23:09.986Z,18.70
2018-04-08T16:25:37.547Z,18.70
2018-04-08T16:28:05.858Z,18.60
2018-04-08T16:30:33.427Z,18.50
2018-04-08T16:33:00.920Z,18.50
2018-04-08T16:35:28.423Z,18.50
2018-04-08T16:37:56.930Z,18.30
2018-04-08T16:40:24.432Z,18.30
2018-04-08T16:42:54.307Z,18.30
2018-04-08T16:45:21.779Z,18.30
2018-04-08T16:47:50.023Z,18.20
2018-04-08T16:50:17.522Z,18.20
2018-04-08T16:52:45.013Z,18.20
2018-04-08T16:55:12.494Z,18.20
2018-04-08T17:00:14.768Z,18.10
2018-04-08T17:02:43.041Z,18.00
2018-04-08T17:05:10.533Z,18.00
2018-04-08T17:07:38.006Z,17.90
2018-04-08T17:10:05.548Z,17.80
2018-04-08T17:12:33.000Z,17.80
2018-04-08T17:15:00.503Z,17.80
2018-04-08T17:17:28.010Z,17.70
2018-04-08T17:19:56.316Z,17.60
2018-04-08T17:22:23.803Z,17.60
2018-04-08T17:24:51.302Z,17.50
2018-04-08T17:27:20.393Z,17.40
2018-04-08T17:29:48.646Z,17.30
2018-04-08T17:32:16.159Z,17.20
2018-04-08T17:34:43.648Z,17.20
2018-04-08T17:37:11.164Z,17.10
2018-04-08T17:39:38.703Z,17.10
2018-04-08T17:42:06.237Z,17.10
2018-04-08T17:44:36.818Z,17.00
2018-04-08T17:47:04.618Z,17.00
2018-04-08T17:49:32.116Z,16.90
2018-04-08T17:52:00.366Z,16.80
2018-04-08T17:54:27.872Z,16.80
2018-04-08T17:56:55.362Z,16.80
2018-04-08T17:59:22.884Z,16.70
2018-04-08T18:01:50.390Z,16.70
2018-04-08T18:04:17.907Z,16.60
2018-04-08T18:06:45.401Z,16.50
2018-04-08T18:09:12.925Z,16.40
2018-04-08T18:11:40.459Z,16.30
2018-04-08T18:14:08.731Z,16.10
2018-04-08T18:16:37.003Z,16.10
2018-04-08T18:19:05.298Z,16.00
2018-04-08T18:21:33.538Z,15.90
2018-04-08T18:24:01.059Z,15.90
2018-04-08T18:26:28.966Z,15.90
2018-04-08T18:28:56.470Z,15.80
2018-04-08T18:31:23.991Z,15.80
2018-04-08T18:33:51.520Z,15.70
2018-04-08T18:36:19.010Z,15.60
2018-04-08T18:38:47.650Z,15.60
2018-04-08T18:41:15.189Z,15.50
2018-04-08T18:43:42.735Z,15.40
2018-04-08T18:46:11.030Z,15.20
2018-04-08T18:48:38.616Z,15.20
2018-04-08T18:51:06.106Z,15.20
2018-04-08T18:53:33.594Z,15.10
2018-04-08T18:56:02.370Z,15.00
2018-04-08T18:58:30.646Z,14.90
2018-04-08T19:00:59.141Z,14.80
2018-04-08T19:03:26.720Z,14.80
2018-04-08T19:05:54.237Z,14.80
2018-04-08T19:08:22.038Z,14.60
2018-04-08T19:10:49.593Z,14.50
2018-04-08T19:13:17.470Z,14.40
2018-04-08T19:15:45.125Z,14.30
2018-04-08T19:18:12.616Z,14.20
2018-04-08T19:20:45.117Z,14.00
2018-04-08T19:23:13.486Z,14.00
2018-04-08T19:25:40.970Z,14.00
2018-04-08T19:28:09.261Z,13.90
2018-04-08T19:30:37.521Z,13.90
2018-04-08T19:33:05.918Z,13.90
2018-04-08T19:35:34.266Z,13.80
2018-04-08T19:38:01.821Z,13.80
2018-04-08T19:40:29.477Z,13.80
2018-04-08T19:42:56.982Z,13.70
2018-04-08T19:45:24.527Z,13.70
2018-04-08T19:47:52.824Z,13.60
2018-04-08T19:50:20.339Z,13.60
2018-04-08T19:52:47.875Z,13.50
2018-04-08T19:55:16.087Z,13.40
2018-04-08T19:57:44.404Z,13.40
2018-04-08T20:00:11.883Z,13.30
2018-04-08T20:02:39.379Z,13.30
2018-04-08T20:05:06.874Z,13.30
2018-04-08T20:07:34.383Z,13.20
2018-04-08T20:10:01.871Z,13.10
2018-04-08T20:12:30.145Z,13.00
2018-04-08T20:14:57.633Z,13.00
2018-04-08T20:17:25.150Z,12.90
2018-04-08T20:19:53.517Z,12.90
2018-04-08T20:22:21.097Z,12.90
2018-04-08T20:24:49.931Z,12.90
2018-04-08T20:27:18.412Z,12.80
2018-04-08T20:29:45.935Z,12.80
2018-04-08T20:32:14.250Z,12.70
2018-04-08T20:34:41.750Z,12.70
2018-04-08T20:37:09.256Z,12.60
2018-04-08T20:39:36.759Z,12.60
2018-04-08T20:42:04.945Z,12.50
2018-04-08T20:44:32.434Z,12.50
2018-04-08T20:46:59.926Z,12.50
2018-04-08T20:49:27.430Z,12.40
2018-04-08T20:51:54.955Z,12.40
2018-04-08T20:54:22.440Z,12.30
2018-04-08T20:56:49.963Z,12.30
2018-04-08T20:59:17.458Z,12.30
2018-04-08T21:01:45.755Z,12.20
2018-04-08T21:04:13.266Z,12.20
2018-04-08T21:06:40.772Z,12.10
2018-04-08T21:09:09.019Z,12.10
2018-04-08T21:11:36.562Z,12.10
2018-04-08T21:14:04.066Z,12.10
2018-04-08T21:16:32.358Z,12.00
2018-04-08T21:18:59.885Z,11.90
2018-04-08T21:21:27.423Z,11.90
2018-04-08T21:23:55.211Z,11.90
2018-04-08T21:26:23.478Z,11.80
2018-04-08T21:28:50.956Z,11.80
2018-04-08T21:31:19.255Z,11.60
2018-04-08T21:33:46.770Z,11.70
2018-04-08T21:36:14.250Z,11.70
2018-04-08T21:38:42.516Z,11.60
2018-04-08T21:41:10.836Z,11.50
2018-04-08T21:43:38.316Z,11.50
2018-04-08T21:46:05.818Z,11.40
2018-04-08T21:48:33.347Z,11.40
2018-04-08T21:51:00.880Z,11.40
2018-04-08T21:53:28.362Z,11.40
2018-04-08T21:55:55.910Z,11.30
2018-04-08T21:58:23.398Z,11.30
2018-04-08T22:00:50.881Z,11.20
2018-04-08T22:03:18.394Z,11.20
2018-04-08T22:05:45.874Z,11.10
2018-04-08T22:08:14.139Z,11.10
2018-04-08T22:10:41.650Z,11.00
2018-04-08T22:13:09.134Z,11.00
2018-04-08T22:15:36.630Z,11.00
2018-04-08T22:18:04.462Z,10.90
2018-04-08T22:20:31.963Z,10.90
2018-04-08T22:22:59.439Z,10.80
2018-04-08T22:25:26.938Z,10.80
2018-04-08T22:27:54.454Z,10.70
2018-04-08T22:30:21.943Z,10.70
2018-04-08T22:32:49.504Z,10.60
2018-04-08T22:35:16.994Z,10.60
2018-04-08T22:37:44.487Z,10.50
2018-04-08T22:40:12.083Z,10.50
2018-04-08T22:42:39.626Z,10.50
2018-04-08T22:45:07.114Z,10.40
2018-04-08T22:47:34.644Z,10.40
2018-04-08T22:50:02.136Z,10.40
2018-04-08T22:52:29.628Z,10.30
2018-04-08T22:54:57.932Z,10.30
2018-04-08T22:57:25.442Z,10.20
2018-04-08T22:59:52.922Z,10.20
2018-04-08T23:02:21.250Z,10.10
2018-04-08T23:04:48.734Z,10.10
2018-04-08T23:07:16.243Z,10.10
2018-04-08T23:09:43.747Z,10.00
2018-04-08T23:12:11.230Z,9.90
2018-04-08T23:14:39.482Z,9.90
2018-04-08T23:17:06.979Z,9.80
2018-04-08T23:19:34.510Z,9.90
2018-04-08T23:22:01.995Z,9.80
2018-04-08T23:24:30.259Z,9.70
2018-04-08T23:26:58.537Z,9.60
2018-04-08T23:29:26.795Z,9.60
2018-04-08T23:31:54.295Z,9.60
2018-04-08T23:34:21.789Z,9.60
2018-04-08T23:36:49.266Z,9.60
2018-04-08T23:39:16.792Z,9.50
2018-04-08T23:41:44.282Z,9.40
2018-04-08T23:44:11.778Z,9.40
2018-04-08T23:46:39.278Z,9.40
2018-04-08T23:49:06.755Z,9.30
2018-04-08T23:51:34.231Z,9.30
2018-04-08T23:54:02.499Z,9.30
2018-04-08T23:56:30.076Z,9.30
2018-04-08T23:58:58.396Z,9.30
